sensor_id;sensor_type;location;lat;lon;timestamp;P1;durP1;ratioP1;P2;durP2;ratioP2
10100;SDS011;5090;51.258;4.436;2022-12-10T00:00:37;73.97;;;28.03;;
10100;SDS011;5090;51.258;4.436;2022-12-10T00:03:05;73.10;;;29.03;;
10100;SDS011;5090;51.258;4.436;2022-12-10T00:05:34;64.10;;;28.73;;
10100;SDS011;5090;51.258;4.436;2022-12-10T00:08:02;73.00;;;29.47;;
10100;SDS011;5090;51.258;4.436;2022-12-10T00:10:31;72.00;;;28.97;;
10100;SDS011;5090;51.258;4.436;2022-12-10T00:12:59;73.10;;;30.37;;
10100;SDS011;5090;51.258;4.436;2022-12-10T00:15:27;71.37;;;29.40;;
10100;SDS011;5090;51.258;4.436;2022-12-10T00:17:55;72.30;;;28.73;;
10100;SDS011;5090;51.258;4.436;2022-12-10T00:20:24;75.50;;;29.50;;
10100;SDS011;5090;51.258;4.436;2022-12-10T00:22:52;65.20;;;28.57;;
10100;SDS011;5090;51.258;4.436;2022-12-10T00:25:20;73.97;;;28.63;;
10100;SDS011;5090;51.258;4.436;2022-12-10T00:27:49;72.87;;;28.17;;
10100;SDS011;5090;51.258;4.436;2022-12-10T00:30:17;77.47;;;31.10;;
10100;SDS011;5090;51.258;4.436;2022-12-10T00:32:46;80.03;;;30.43;;
10100;SDS011;5090;51.258;4.436;2022-12-10T00:35:14;68.63;;;31.17;;
10100;SDS011;5090;51.258;4.436;2022-12-10T00:37:42;73.30;;;29.73;;
10100;SDS011;5090;51.258;4.436;2022-12-10T00:40:10;71.33;;;31.40;;
10100;SDS011;5090;51.258;4.436;2022-12-10T00:42:39;83.70;;;31.43;;
10100;SDS011;5090;51.258;4.436;2022-12-10T00:45:07;71.63;;;29.67;;
10100;SDS011;5090;51.258;4.436;2022-12-10T00:47:35;74.30;;;31.67;;
10100;SDS011;5090;51.258;4.436;2022-12-10T00:50:04;79.07;;;31.20;;
10100;SDS011;5090;51.258;4.436;2022-12-10T00:52:32;70.77;;;30.73;;
10100;SDS011;5090;51.258;4.436;2022-12-10T00:55:00;70.93;;;30.27;;
10100;SDS011;5090;51.258;4.436;2022-12-10T00:57:29;78.80;;;31.77;;
10100;SDS011;5090;51.258;4.436;2022-12-10T00:59:57;70.13;;;30.50;;
10100;SDS011;5090;51.258;4.436;2022-12-10T01:02:26;80.83;;;31.47;;
10100;SDS011;5090;51.258;4.436;2022-12-10T01:04:54;68.47;;;31.07;;
10100;SDS011;5090;51.258;4.436;2022-12-10T01:07:23;68.53;;;29.83;;
10100;SDS011;5090;51.258;4.436;2022-12-10T01:09:51;79.47;;;31.13;;
10100;SDS011;5090;51.258;4.436;2022-12-10T01:12:19;81.90;;;32.27;;
10100;SDS011;5090;51.258;4.436;2022-12-10T01:14:47;77.13;;;31.53;;
10100;SDS011;5090;51.258;4.436;2022-12-10T01:17:16;85.37;;;32.83;;
10100;SDS011;5090;51.258;4.436;2022-12-10T01:19:44;85.03;;;33.90;;
10100;SDS011;5090;51.258;4.436;2022-12-10T01:22:13;81.07;;;34.57;;
10100;SDS011;5090;51.258;4.436;2022-12-10T01:24:41;74.87;;;32.03;;
10100;SDS011;5090;51.258;4.436;2022-12-10T01:27:09;79.57;;;32.00;;
10100;SDS011;5090;51.258;4.436;2022-12-10T01:29:37;84.00;;;33.77;;
10100;SDS011;5090;51.258;4.436;2022-12-10T01:32:06;91.33;;;33.10;;
10100;SDS011;5090;51.258;4.436;2022-12-10T01:34:34;74.70;;;31.03;;
10100;SDS011;5090;51.258;4.436;2022-12-10T01:37:03;78.30;;;31.30;;
10100;SDS011;5090;51.258;4.436;2022-12-10T01:39:31;80.07;;;31.90;;
10100;SDS011;5090;51.258;4.436;2022-12-10T01:42:00;74.03;;;30.83;;
10100;SDS011;5090;51.258;4.436;2022-12-10T01:47:03;86.77;;;32.60;;
10100;SDS011;5090;51.258;4.436;2022-12-10T01:49:33;76.77;;;31.90;;
10100;SDS011;5090;51.258;4.436;2022-12-10T01:52:00;81.37;;;32.77;;
10100;SDS011;5090;51.258;4.436;2022-12-10T01:54:29;74.23;;;30.80;;
10100;SDS011;5090;51.258;4.436;2022-12-10T01:57:00;72.17;;;31.07;;
10100;SDS011;5090;51.258;4.436;2022-12-10T01:59:28;74.97;;;32.03;;
10100;SDS011;5090;51.258;4.436;2022-12-10T02:02:05;70.93;;;30.37;;
10100;SDS011;5090;51.258;4.436;2022-12-10T02:04:34;77.00;;;30.67;;
10100;SDS011;5090;51.258;4.436;2022-12-10T02:07:02;77.27;;;31.83;;
10100;SDS011;5090;51.258;4.436;2022-12-10T02:09:35;81.57;;;31.57;;
10100;SDS011;5090;51.258;4.436;2022-12-10T02:14:54;70.37;;;30.87;;
10100;SDS011;5090;51.258;4.436;2022-12-10T02:18:32;90.80;;;30.67;;
10100;SDS011;5090;51.258;4.436;2022-12-10T02:20:08;75.27;;;29.70;;
10100;SDS011;5090;51.258;4.436;2022-12-10T02:22:39;75.43;;;29.57;;
10100;SDS011;5090;51.258;4.436;2022-12-10T02:25:06;78.60;;;29.93;;
10100;SDS011;5090;51.258;4.436;2022-12-10T02:27:40;80.70;;;28.87;;
10100;SDS011;5090;51.258;4.436;2022-12-10T02:30:04;75.40;;;28.53;;
10100;SDS011;5090;51.258;4.436;2022-12-10T02:32:33;81.13;;;29.93;;
10100;SDS011;5090;51.258;4.436;2022-12-10T02:35:02;76.97;;;26.83;;
10100;SDS011;5090;51.258;4.436;2022-12-10T02:37:31;83.37;;;29.60;;
10100;SDS011;5090;51.258;4.436;2022-12-10T02:39:59;91.27;;;29.23;;
10100;SDS011;5090;51.258;4.436;2022-12-10T02:42:26;80.30;;;29.13;;
10100;SDS011;5090;51.258;4.436;2022-12-10T02:44:55;82.70;;;28.50;;
10100;SDS011;5090;51.258;4.436;2022-12-10T02:47:23;77.43;;;27.57;;
10100;SDS011;5090;51.258;4.436;2022-12-10T02:49:52;90.10;;;28.97;;
10100;SDS011;5090;51.258;4.436;2022-12-10T02:52:20;85.17;;;27.50;;
10100;SDS011;5090;51.258;4.436;2022-12-10T02:54:48;80.23;;;26.03;;
10100;SDS011;5090;51.258;4.436;2022-12-10T02:57:23;79.43;;;29.07;;
10100;SDS011;5090;51.258;4.436;2022-12-10T02:59:54;84.43;;;28.77;;
10100;SDS011;5090;51.258;4.436;2022-12-10T03:02:23;83.47;;;28.47;;
10100;SDS011;5090;51.258;4.436;2022-12-10T03:04:57;93.07;;;29.80;;
10100;SDS011;5090;51.258;4.436;2022-12-10T03:07:40;99.03;;;29.70;;
10100;SDS011;5090;51.258;4.436;2022-12-10T03:10:10;84.60;;;29.13;;
10100;SDS011;5090;51.258;4.436;2022-12-10T03:12:37;76.60;;;28.53;;
10100;SDS011;5090;51.258;4.436;2022-12-10T03:15:05;85.87;;;29.27;;
10100;SDS011;5090;51.258;4.436;2022-12-10T03:17:32;89.43;;;30.13;;
10100;SDS011;5090;51.258;4.436;2022-12-10T03:20:01;88.97;;;29.80;;
10100;SDS011;5090;51.258;4.436;2022-12-10T03:22:29;86.10;;;28.97;;
10100;SDS011;5090;51.258;4.436;2022-12-10T03:24:57;92.27;;;31.13;;
10100;SDS011;5090;51.258;4.436;2022-12-10T03:27:25;82.60;;;29.87;;
10100;SDS011;5090;51.258;4.436;2022-12-10T03:29:54;86.50;;;30.50;;
10100;SDS011;5090;51.258;4.436;2022-12-10T03:32:24;95.07;;;32.43;;
10100;SDS011;5090;51.258;4.436;2022-12-10T03:34:52;98.10;;;31.80;;
10100;SDS011;5090;51.258;4.436;2022-12-10T03:37:20;96.33;;;33.20;;
10100;SDS011;5090;51.258;4.436;2022-12-10T03:39:48;96.60;;;31.30;;
10100;SDS011;5090;51.258;4.436;2022-12-10T03:42:16;90.47;;;31.50;;
10100;SDS011;5090;51.258;4.436;2022-12-10T03:44:44;95.30;;;32.00;;
10100;SDS011;5090;51.258;4.436;2022-12-10T03:47:13;93.13;;;30.80;;
10100;SDS011;5090;51.258;4.436;2022-12-10T03:49:41;99.00;;;31.43;;
10100;SDS011;5090;51.258;4.436;2022-12-10T03:52:09;93.57;;;29.77;;
10100;SDS011;5090;51.258;4.436;2022-12-10T03:54:37;103.20;;;32.53;;
10100;SDS011;5090;51.258;4.436;2022-12-10T03:57:05;89.83;;;31.97;;
10100;SDS011;5090;51.258;4.436;2022-12-10T03:59:34;94.40;;;31.93;;
10100;SDS011;5090;51.258;4.436;2022-12-10T04:02:02;101.87;;;31.37;;
10100;SDS011;5090;51.258;4.436;2022-12-10T04:04:30;100.27;;;31.87;;
10100;SDS011;5090;51.258;4.436;2022-12-10T04:06:59;96.43;;;31.13;;
10100;SDS011;5090;51.258;4.436;2022-12-10T04:09:27;95.10;;;30.53;;
10100;SDS011;5090;51.258;4.436;2022-12-10T04:11:56;101.40;;;32.53;;
10100;SDS011;5090;51.258;4.436;2022-12-10T04:14:24;96.80;;;31.50;;
10100;SDS011;5090;51.258;4.436;2022-12-10T04:16:57;108.77;;;32.17;;
10100;SDS011;5090;51.258;4.436;2022-12-10T04:19:26;95.77;;;31.00;;
10100;SDS011;5090;51.258;4.436;2022-12-10T04:21:55;103.53;;;31.83;;
10100;SDS011;5090;51.258;4.436;2022-12-10T04:24:30;104.13;;;32.90;;
10100;SDS011;5090;51.258;4.436;2022-12-10T04:27:04;100.80;;;32.07;;
10100;SDS011;5090;51.258;4.436;2022-12-10T04:29:31;103.50;;;30.63;;
10100;SDS011;5090;51.258;4.436;2022-12-10T04:31:59;100.87;;;32.83;;
10100;SDS011;5090;51.258;4.436;2022-12-10T04:34:27;102.47;;;33.10;;
10100;SDS011;5090;51.258;4.436;2022-12-10T04:36:57;90.57;;;30.57;;
10100;SDS011;5090;51.258;4.436;2022-12-10T04:39:24;107.77;;;32.20;;
10100;SDS011;5090;51.258;4.436;2022-12-10T04:41:52;95.83;;;31.87;;
10100;SDS011;5090;51.258;4.436;2022-12-10T04:44:20;97.53;;;32.30;;
10100;SDS011;5090;51.258;4.436;2022-12-10T04:46:49;128.43;;;32.57;;
10100;SDS011;5090;51.258;4.436;2022-12-10T04:49:17;117.40;;;32.43;;
10100;SDS011;5090;51.258;4.436;2022-12-10T04:51:45;108.20;;;32.53;;
10100;SDS011;5090;51.258;4.436;2022-12-10T04:54:13;98.77;;;31.90;;
10100;SDS011;5090;51.258;4.436;2022-12-10T04:56:42;107.07;;;33.27;;
10100;SDS011;5090;51.258;4.436;2022-12-10T04:59:10;99.57;;;31.63;;
10100;SDS011;5090;51.258;4.436;2022-12-10T05:01:38;95.03;;;30.13;;
10100;SDS011;5090;51.258;4.436;2022-12-10T05:04:07;106.63;;;31.37;;
10100;SDS011;5090;51.258;4.436;2022-12-10T05:06:34;107.03;;;31.00;;
10100;SDS011;5090;51.258;4.436;2022-12-10T05:09:03;105.27;;;33.17;;
10100;SDS011;5090;51.258;4.436;2022-12-10T05:11:31;110.80;;;32.83;;
10100;SDS011;5090;51.258;4.436;2022-12-10T05:14:00;100.17;;;31.27;;
10100;SDS011;5090;51.258;4.436;2022-12-10T05:16:28;101.90;;;32.30;;
10100;SDS011;5090;51.258;4.436;2022-12-10T05:18:56;108.77;;;30.83;;
10100;SDS011;5090;51.258;4.436;2022-12-10T05:21:25;103.93;;;32.17;;
10100;SDS011;5090;51.258;4.436;2022-12-10T05:23:52;100.23;;;29.77;;
10100;SDS011;5090;51.258;4.436;2022-12-10T05:26:23;84.97;;;29.30;;
10100;SDS011;5090;51.258;4.436;2022-12-10T05:28:52;95.43;;;31.30;;
10100;SDS011;5090;51.258;4.436;2022-12-10T05:31:22;90.53;;;29.57;;
10100;SDS011;5090;51.258;4.436;2022-12-10T05:33:50;94.27;;;26.80;;
10100;SDS011;5090;51.258;4.436;2022-12-10T05:36:19;81.87;;;28.50;;
10100;SDS011;5090;51.258;4.436;2022-12-10T05:38:47;91.30;;;27.53;;
10100;SDS011;5090;51.258;4.436;2022-12-10T05:41:15;86.60;;;29.40;;
10100;SDS011;5090;51.258;4.436;2022-12-10T05:43:43;85.27;;;28.27;;
10100;SDS011;5090;51.258;4.436;2022-12-10T05:46:12;103.93;;;29.77;;
10100;SDS011;5090;51.258;4.436;2022-12-10T05:48:39;105.67;;;30.20;;
10100;SDS011;5090;51.258;4.436;2022-12-10T05:51:08;90.87;;;28.30;;
10100;SDS011;5090;51.258;4.436;2022-12-10T05:53:37;90.87;;;27.07;;
10100;SDS011;5090;51.258;4.436;2022-12-10T05:56:06;96.07;;;31.00;;
10100;SDS011;5090;51.258;4.436;2022-12-10T05:58:34;96.33;;;29.70;;
10100;SDS011;5090;51.258;4.436;2022-12-10T06:01:08;93.07;;;28.37;;
10100;SDS011;5090;51.258;4.436;2022-12-10T06:03:35;88.40;;;29.03;;
10100;SDS011;5090;51.258;4.436;2022-12-10T06:06:03;90.43;;;27.93;;
10100;SDS011;5090;51.258;4.436;2022-12-10T06:08:32;99.07;;;28.73;;
10100;SDS011;5090;51.258;4.436;2022-12-10T06:11:01;105.43;;;30.03;;
10100;SDS011;5090;51.258;4.436;2022-12-10T06:13:29;125.90;;;29.57;;
10100;SDS011;5090;51.258;4.436;2022-12-10T06:15:57;117.03;;;28.47;;
10100;SDS011;5090;51.258;4.436;2022-12-10T06:18:26;97.87;;;28.07;;
10100;SDS011;5090;51.258;4.436;2022-12-10T06:20:54;98.43;;;27.77;;
10100;SDS011;5090;51.258;4.436;2022-12-10T06:23:22;100.50;;;26.10;;
10100;SDS011;5090;51.258;4.436;2022-12-10T06:25:51;106.57;;;29.10;;
10100;SDS011;5090;51.258;4.436;2022-12-10T06:28:19;100.57;;;25.73;;
10100;SDS011;5090;51.258;4.436;2022-12-10T06:30:48;92.83;;;27.27;;
10100;SDS011;5090;51.258;4.436;2022-12-10T06:33:17;103.13;;;26.60;;
10100;SDS011;5090;51.258;4.436;2022-12-10T06:35:45;109.17;;;26.33;;
10100;SDS011;5090;51.258;4.436;2022-12-10T06:38:18;94.90;;;24.97;;
10100;SDS011;5090;51.258;4.436;2022-12-10T06:40:46;91.23;;;25.57;;
10100;SDS011;5090;51.258;4.436;2022-12-10T06:43:14;101.73;;;26.63;;
10100;SDS011;5090;51.258;4.436;2022-12-10T06:45:42;74.97;;;25.27;;
10100;SDS011;5090;51.258;4.436;2022-12-10T06:48:10;103.40;;;23.00;;
10100;SDS011;5090;51.258;4.436;2022-12-10T06:50:39;95.37;;;24.80;;
10100;SDS011;5090;51.258;4.436;2022-12-10T06:53:07;113.97;;;25.63;;
10100;SDS011;5090;51.258;4.436;2022-12-10T06:55:37;90.33;;;24.53;;
10100;SDS011;5090;51.258;4.436;2022-12-10T06:58:04;87.17;;;25.10;;
10100;SDS011;5090;51.258;4.436;2022-12-10T07:00:32;96.47;;;24.97;;
10100;SDS011;5090;51.258;4.436;2022-12-10T07:03:01;79.97;;;23.03;;
10100;SDS011;5090;51.258;4.436;2022-12-10T07:05:29;88.30;;;24.83;;
10100;SDS011;5090;51.258;4.436;2022-12-10T07:07:57;77.60;;;23.20;;
10100;SDS011;5090;51.258;4.436;2022-12-10T07:10:25;85.80;;;24.87;;
10100;SDS011;5090;51.258;4.436;2022-12-10T07:12:53;85.33;;;23.90;;
10100;SDS011;5090;51.258;4.436;2022-12-10T07:15:22;87.13;;;22.77;;
10100;SDS011;5090;51.258;4.436;2022-12-10T07:17:51;78.80;;;23.70;;
10100;SDS011;5090;51.258;4.436;2022-12-10T07:20:19;70.37;;;24.10;;
10100;SDS011;5090;51.258;4.436;2022-12-10T07:22:47;73.40;;;22.83;;
10100;SDS011;5090;51.258;4.436;2022-12-10T07:25:15;78.00;;;24.83;;
10100;SDS011;5090;51.258;4.436;2022-12-10T07:27:43;71.00;;;23.73;;
10100;SDS011;5090;51.258;4.436;2022-12-10T07:30:12;65.03;;;21.67;;
10100;SDS011;5090;51.258;4.436;2022-12-10T07:32:40;72.93;;;22.73;;
10100;SDS011;5090;51.258;4.436;2022-12-10T07:35:09;73.70;;;23.00;;
10100;SDS011;5090;51.258;4.436;2022-12-10T07:37:37;69.10;;;23.80;;
10100;SDS011;5090;51.258;4.436;2022-12-10T07:40:06;76.30;;;23.27;;
10100;SDS011;5090;51.258;4.436;2022-12-10T07:42:34;85.73;;;24.77;;
10100;SDS011;5090;51.258;4.436;2022-12-10T07:45:03;74.10;;;24.47;;
10100;SDS011;5090;51.258;4.436;2022-12-10T07:47:31;85.13;;;25.67;;
10100;SDS011;5090;51.258;4.436;2022-12-10T07:49:59;71.53;;;24.57;;
10100;SDS011;5090;51.258;4.436;2022-12-10T07:52:28;74.33;;;24.33;;
10100;SDS011;5090;51.258;4.436;2022-12-10T07:54:57;62.43;;;24.17;;
10100;SDS011;5090;51.258;4.436;2022-12-10T07:57:25;71.87;;;23.17;;
10100;SDS011;5090;51.258;4.436;2022-12-10T07:59:53;73.97;;;24.43;;
10100;SDS011;5090;51.258;4.436;2022-12-10T08:02:22;72.23;;;23.77;;
10100;SDS011;5090;51.258;4.436;2022-12-10T08:04:50;73.47;;;25.33;;
10100;SDS011;5090;51.258;4.436;2022-12-10T08:07:18;78.40;;;24.13;;
10100;SDS011;5090;51.258;4.436;2022-12-10T08:09:47;80.87;;;24.40;;
10100;SDS011;5090;51.258;4.436;2022-12-10T08:12:15;69.00;;;22.00;;
10100;SDS011;5090;51.258;4.436;2022-12-10T08:14:43;73.97;;;23.90;;
10100;SDS011;5090;51.258;4.436;2022-12-10T08:17:12;72.70;;;24.10;;
10100;SDS011;5090;51.258;4.436;2022-12-10T08:19:40;82.47;;;25.07;;
10100;SDS011;5090;51.258;4.436;2022-12-10T08:22:08;77.50;;;24.43;;
10100;SDS011;5090;51.258;4.436;2022-12-10T08:24:36;80.70;;;26.67;;
10100;SDS011;5090;51.258;4.436;2022-12-10T08:27:05;74.80;;;24.40;;
10100;SDS011;5090;51.258;4.436;2022-12-10T08:29:33;80.40;;;24.07;;
10100;SDS011;5090;51.258;4.436;2022-12-10T08:32:01;87.23;;;23.90;;
10100;SDS011;5090;51.258;4.436;2022-12-10T08:34:30;90.13;;;25.97;;
10100;SDS011;5090;51.258;4.436;2022-12-10T08:36:58;91.03;;;26.87;;
10100;SDS011;5090;51.258;4.436;2022-12-10T08:39:27;77.13;;;23.77;;
10100;SDS011;5090;51.258;4.436;2022-12-10T08:41:55;75.93;;;25.80;;
10100;SDS011;5090;51.258;4.436;2022-12-10T08:44:23;84.30;;;27.67;;
10100;SDS011;5090;51.258;4.436;2022-12-10T08:46:56;78.67;;;25.37;;
10100;SDS011;5090;51.258;4.436;2022-12-10T08:49:24;102.43;;;27.60;;
10100;SDS011;5090;51.258;4.436;2022-12-10T08:51:53;73.50;;;25.80;;
10100;SDS011;5090;51.258;4.436;2022-12-10T08:54:21;90.13;;;28.17;;
10100;SDS011;5090;51.258;4.436;2022-12-10T08:56:49;84.83;;;26.60;;
10100;SDS011;5090;51.258;4.436;2022-12-10T08:59:21;89.63;;;25.87;;
10100;SDS011;5090;51.258;4.436;2022-12-10T09:01:51;102.83;;;27.10;;
10100;SDS011;5090;51.258;4.436;2022-12-10T09:04:18;97.60;;;28.10;;
10100;SDS011;5090;51.258;4.436;2022-12-10T09:06:46;87.80;;;26.43;;
10100;SDS011;5090;51.258;4.436;2022-12-10T09:09:14;93.33;;;27.83;;
10100;SDS011;5090;51.258;4.436;2022-12-10T09:11:43;88.67;;;26.37;;
10100;SDS011;5090;51.258;4.436;2022-12-10T09:14:11;91.23;;;29.33;;
10100;SDS011;5090;51.258;4.436;2022-12-10T09:16:39;89.67;;;27.53;;
10100;SDS011;5090;51.258;4.436;2022-12-10T09:19:07;76.27;;;26.37;;
10100;SDS011;5090;51.258;4.436;2022-12-10T09:21:36;88.17;;;27.77;;
10100;SDS011;5090;51.258;4.436;2022-12-10T09:24:04;87.13;;;25.27;;
10100;SDS011;5090;51.258;4.436;2022-12-10T09:26:32;78.20;;;24.80;;
10100;SDS011;5090;51.258;4.436;2022-12-10T09:29:00;85.17;;;25.83;;
10100;SDS011;5090;51.258;4.436;2022-12-10T09:31:29;95.30;;;27.93;;
10100;SDS011;5090;51.258;4.436;2022-12-10T09:33:57;81.07;;;26.73;;
10100;SDS011;5090;51.258;4.436;2022-12-10T09:36:25;87.30;;;26.07;;
10100;SDS011;5090;51.258;4.436;2022-12-10T09:38:53;81.63;;;26.40;;
10100;SDS011;5090;51.258;4.436;2022-12-10T09:41:33;79.97;;;24.87;;
10100;SDS011;5090;51.258;4.436;2022-12-10T09:44:07;75.83;;;25.20;;
10100;SDS011;5090;51.258;4.436;2022-12-10T09:46:41;72.00;;;24.53;;
10100;SDS011;5090;51.258;4.436;2022-12-10T09:51:41;92.87;;;27.03;;
10100;SDS011;5090;51.258;4.436;2022-12-10T09:54:16;99.30;;;29.53;;
10100;SDS011;5090;51.258;4.436;2022-12-10T09:56:40;93.07;;;28.57;;
10100;SDS011;5090;51.258;4.436;2022-12-10T09:59:15;91.90;;;26.63;;
10100;SDS011;5090;51.258;4.436;2022-12-10T10:01:39;87.27;;;27.57;;
10100;SDS011;5090;51.258;4.436;2022-12-10T10:04:08;88.63;;;27.43;;
10100;SDS011;5090;51.258;4.436;2022-12-10T10:06:36;89.77;;;27.60;;
10100;SDS011;5090;51.258;4.436;2022-12-10T10:09:05;80.37;;;25.30;;
10100;SDS011;5090;51.258;4.436;2022-12-10T10:11:34;87.10;;;27.50;;
10100;SDS011;5090;51.258;4.436;2022-12-10T10:14:04;73.47;;;25.97;;
10100;SDS011;5090;51.258;4.436;2022-12-10T10:16:33;73.10;;;24.57;;
10100;SDS011;5090;51.258;4.436;2022-12-10T10:19:02;74.90;;;23.97;;
10100;SDS011;5090;51.258;4.436;2022-12-10T10:21:35;85.60;;;26.23;;
10100;SDS011;5090;51.258;4.436;2022-12-10T10:24:02;80.73;;;27.17;;
10100;SDS011;5090;51.258;4.436;2022-12-10T10:26:31;92.13;;;27.70;;
10100;SDS011;5090;51.258;4.436;2022-12-10T10:29:00;78.53;;;26.77;;
10100;SDS011;5090;51.258;4.436;2022-12-10T10:31:29;86.27;;;27.40;;
10100;SDS011;5090;51.258;4.436;2022-12-10T10:33:58;81.33;;;25.83;;
10100;SDS011;5090;51.258;4.436;2022-12-10T10:36:29;84.13;;;25.73;;
10100;SDS011;5090;51.258;4.436;2022-12-10T10:38:57;74.07;;;23.37;;
10100;SDS011;5090;51.258;4.436;2022-12-10T10:41:25;80.50;;;26.13;;
10100;SDS011;5090;51.258;4.436;2022-12-10T10:43:58;69.73;;;24.17;;
10100;SDS011;5090;51.258;4.436;2022-12-10T10:46:22;73.87;;;24.43;;
10100;SDS011;5090;51.258;4.436;2022-12-10T10:48:51;69.33;;;23.37;;
10100;SDS011;5090;51.258;4.436;2022-12-10T10:51:21;75.73;;;24.37;;
10100;SDS011;5090;51.258;4.436;2022-12-10T10:53:50;71.23;;;23.77;;
10100;SDS011;5090;51.258;4.436;2022-12-10T10:56:50;73.77;;;27.77;;
10100;SDS011;5090;51.258;4.436;2022-12-10T10:59:04;67.23;;;23.60;;
10100;SDS011;5090;51.258;4.436;2022-12-10T11:04:06;63.70;;;21.77;;
10100;SDS011;5090;51.258;4.436;2022-12-10T11:06:35;68.50;;;22.80;;
10100;SDS011;5090;51.258;4.436;2022-12-10T11:09:04;64.97;;;23.77;;
10100;SDS011;5090;51.258;4.436;2022-12-10T11:11:39;63.10;;;22.47;;
10100;SDS011;5090;51.258;4.436;2022-12-10T11:16:40;64.03;;;22.47;;
10100;SDS011;5090;51.258;4.436;2022-12-10T11:19:16;63.73;;;22.07;;
10100;SDS011;5090;51.258;4.436;2022-12-10T11:21:37;55.20;;;21.23;;
10100;SDS011;5090;51.258;4.436;2022-12-10T11:24:09;58.87;;;22.40;;
10100;SDS011;5090;51.258;4.436;2022-12-10T11:26:43;62.73;;;23.17;;
10100;SDS011;5090;51.258;4.436;2022-12-10T11:32:11;67.67;;;23.57;;
10100;SDS011;5090;51.258;4.436;2022-12-10T11:34:46;63.97;;;21.87;;
10100;SDS011;5090;51.258;4.436;2022-12-10T11:37:31;67.50;;;22.23;;
10100;SDS011;5090;51.258;4.436;2022-12-10T11:42:49;66.70;;;23.77;;
10100;SDS011;5090;51.258;4.436;2022-12-10T11:45:20;59.97;;;22.70;;
10100;SDS011;5090;51.258;4.436;2022-12-10T11:47:52;57.70;;;22.57;;
10100;SDS011;5090;51.258;4.436;2022-12-10T11:50:24;61.47;;;22.53;;
10100;SDS011;5090;51.258;4.436;2022-12-10T11:52:53;52.57;;;21.53;;
10100;SDS011;5090;51.258;4.436;2022-12-10T11:58:11;63.60;;;23.77;;
10100;SDS011;5090;51.258;4.436;2022-12-10T12:00:42;61.40;;;21.43;;
10100;SDS011;5090;51.258;4.436;2022-12-10T12:03:14;59.93;;;22.17;;
10100;SDS011;5090;51.258;4.436;2022-12-10T12:05:43;64.80;;;23.60;;
10100;SDS011;5090;51.258;4.436;2022-12-10T12:08:15;68.57;;;21.63;;
10100;SDS011;5090;51.258;4.436;2022-12-10T12:10:45;68.03;;;22.20;;
10100;SDS011;5090;51.258;4.436;2022-12-10T12:13:11;58.17;;;21.30;;
10100;SDS011;5090;51.258;4.436;2022-12-10T12:15:44;60.83;;;21.57;;
10100;SDS011;5090;51.258;4.436;2022-12-10T12:18:15;69.57;;;22.60;;
10100;SDS011;5090;51.258;4.436;2022-12-10T12:20:43;64.80;;;22.93;;
10100;SDS011;5090;51.258;4.436;2022-12-10T12:23:14;62.57;;;22.80;;
10100;SDS011;5090;51.258;4.436;2022-12-10T12:25:40;61.20;;;21.57;;
10100;SDS011;5090;51.258;4.436;2022-12-10T12:30:41;66.87;;;23.63;;
10100;SDS011;5090;51.258;4.436;2022-12-10T12:33:15;65.37;;;23.60;;
10100;SDS011;5090;51.258;4.436;2022-12-10T12:35:43;60.90;;;22.03;;
10100;SDS011;5090;51.258;4.436;2022-12-10T12:40:53;58.33;;;22.03;;
10100;SDS011;5090;51.258;4.436;2022-12-10T12:43:24;59.00;;;21.73;;
10100;SDS011;5090;51.258;4.436;2022-12-10T12:45:53;56.00;;;22.83;;
10100;SDS011;5090;51.258;4.436;2022-12-10T12:48:26;64.07;;;22.23;;
10100;SDS011;5090;51.258;4.436;2022-12-10T12:50:54;53.90;;;20.97;;
10100;SDS011;5090;51.258;4.436;2022-12-10T12:53:22;67.20;;;21.63;;
10100;SDS011;5090;51.258;4.436;2022-12-10T12:55:55;64.37;;;23.33;;
10100;SDS011;5090;51.258;4.436;2022-12-10T13:01:21;76.40;;;27.60;;
10100;SDS011;5090;51.258;4.436;2022-12-10T13:03:48;70.97;;;24.70;;
10100;SDS011;5090;51.258;4.436;2022-12-10T13:06:22;63.67;;;23.30;;
10100;SDS011;5090;51.258;4.436;2022-12-10T13:08:51;61.27;;;23.47;;
10100;SDS011;5090;51.258;4.436;2022-12-10T13:11:18;69.53;;;24.13;;
10100;SDS011;5090;51.258;4.436;2022-12-10T13:24:19;70.33;;;22.93;;
10100;SDS011;5090;51.258;4.436;2022-12-10T13:29:22;60.70;;;23.27;;
10100;SDS011;5090;51.258;4.436;2022-12-10T13:31:55;66.60;;;22.67;;
10100;SDS011;5090;51.258;4.436;2022-12-10T13:34:29;62.00;;;22.97;;
10100;SDS011;5090;51.258;4.436;2022-12-10T13:37:03;65.17;;;24.03;;
10100;SDS011;5090;51.258;4.436;2022-12-10T13:39:31;59.43;;;22.67;;
10100;SDS011;5090;51.258;4.436;2022-12-10T13:47:22;56.10;;;22.97;;
10100;SDS011;5090;51.258;4.436;2022-12-10T13:49:49;62.07;;;24.13;;
10100;SDS011;5090;51.258;4.436;2022-12-10T13:52:18;62.63;;;23.37;;
10100;SDS011;5090;51.258;4.436;2022-12-10T13:54:58;65.47;;;24.63;;
10100;SDS011;5090;51.258;4.436;2022-12-10T14:00:08;66.10;;;23.63;;
10100;SDS011;5090;51.258;4.436;2022-12-10T14:02:55;64.57;;;23.20;;
10100;SDS011;5090;51.258;4.436;2022-12-10T14:05:23;61.10;;;23.33;;
10100;SDS011;5090;51.258;4.436;2022-12-10T14:07:51;68.17;;;23.83;;
10100;SDS011;5090;51.258;4.436;2022-12-10T14:10:20;60.17;;;24.07;;
10100;SDS011;5090;51.258;4.436;2022-12-10T14:12:48;60.23;;;22.60;;
10100;SDS011;5090;51.258;4.436;2022-12-10T14:15:19;54.87;;;21.43;;
10100;SDS011;5090;51.258;4.436;2022-12-10T14:17:48;54.17;;;21.73;;
10100;SDS011;5090;51.258;4.436;2022-12-10T14:20:18;55.83;;;22.00;;
10100;SDS011;5090;51.258;4.436;2022-12-10T14:22:47;57.37;;;22.87;;
10100;SDS011;5090;51.258;4.436;2022-12-10T14:25:16;55.30;;;21.37;;
10100;SDS011;5090;51.258;4.436;2022-12-10T14:27:47;59.93;;;23.23;;
10100;SDS011;5090;51.258;4.436;2022-12-10T14:30:16;63.83;;;22.60;;
10100;SDS011;5090;51.258;4.436;2022-12-10T14:32:43;63.33;;;22.77;;
10100;SDS011;5090;51.258;4.436;2022-12-10T14:35:16;57.80;;;22.50;;
10100;SDS011;5090;51.258;4.436;2022-12-10T14:37:44;53.77;;;21.43;;
10100;SDS011;5090;51.258;4.436;2022-12-10T14:40:19;58.47;;;23.70;;
10100;SDS011;5090;51.258;4.436;2022-12-10T14:42:45;53.97;;;20.73;;
10100;SDS011;5090;51.258;4.436;2022-12-10T14:45:14;60.47;;;22.80;;
10100;SDS011;5090;51.258;4.436;2022-12-10T14:47:43;60.97;;;22.20;;
10100;SDS011;5090;51.258;4.436;2022-12-10T14:50:11;62.30;;;22.60;;
10100;SDS011;5090;51.258;4.436;2022-12-10T14:52:41;59.43;;;22.67;;
10100;SDS011;5090;51.258;4.436;2022-12-10T14:55:12;57.00;;;22.00;;
10100;SDS011;5090;51.258;4.436;2022-12-10T14:57:42;69.70;;;23.27;;
10100;SDS011;5090;51.258;4.436;2022-12-10T15:00:13;64.00;;;24.60;;
10100;SDS011;5090;51.258;4.436;2022-12-10T15:02:41;63.63;;;23.20;;
10100;SDS011;5090;51.258;4.436;2022-12-10T15:05:12;66.80;;;23.37;;
10100;SDS011;5090;51.258;4.436;2022-12-10T15:07:41;73.97;;;25.63;;
10100;SDS011;5090;51.258;4.436;2022-12-10T15:10:14;68.33;;;25.57;;
10100;SDS011;5090;51.258;4.436;2022-12-10T15:12:40;63.40;;;25.47;;
10100;SDS011;5090;51.258;4.436;2022-12-10T15:15:13;79.33;;;23.93;;
10100;SDS011;5090;51.258;4.436;2022-12-10T15:17:42;63.67;;;23.57;;
10100;SDS011;5090;51.258;4.436;2022-12-10T15:20:10;68.53;;;25.13;;
10100;SDS011;5090;51.258;4.436;2022-12-10T15:22:38;64.27;;;25.37;;
10100;SDS011;5090;51.258;4.436;2022-12-10T15:25:14;63.77;;;24.30;;
10100;SDS011;5090;51.258;4.436;2022-12-10T15:27:51;63.00;;;24.43;;
10100;SDS011;5090;51.258;4.436;2022-12-10T15:32:47;64.20;;;23.70;;
10100;SDS011;5090;51.258;4.436;2022-12-10T15:35:28;62.13;;;25.00;;
10100;SDS011;5090;51.258;4.436;2022-12-10T15:37:57;68.50;;;24.97;;